sensor_id;sensor_type;location;lat;lon;timestamp;pressure;altitude;pressure_sealevel;temperature;humidity
51928;BME280;37953;52.806;18.270;2023-03-03T00:00:49;101124.59;;;1.58;100.00
51928;BME280;37953;52.806;18.270;2023-03-03T00:03:24;101122.03;;;1.58;100.00
51928;BME280;37953;52.806;18.270;2023-03-03T00:05:52;101123.72;;;1.58;100.00
51928;BME280;37953;52.806;18.270;2023-03-03T00:08:19;101119.41;;;1.57;100.00
51928;BME280;37953;52.806;18.270;2023-03-03T00:10:45;101115.06;;;1.56;100.00
51928;BME280;37953;52.806;18.270;2023-03-03T00:13:16;101110.78;;;1.55;100.00
51928;BME280;37953;52.806;18.270;2023-03-03T00:15:43;101106.53;;;1.55;100.00
51928;BME280;37953;52.806;18.270;2023-03-03T00:18:51;101108.22;;;1.55;100.00
51928;BME280;37953;52.806;18.270;2023-03-03T00:20:59;101112.44;;;1.54;100.00
51928;BME280;37953;52.806;18.270;2023-03-03T00:23:35;101120.94;;;1.53;100.00
51928;BME280;37953;52.806;18.270;2023-03-03T00:26:01;101121.66;;;1.51;100.00
51928;BME280;37953;52.806;18.270;2023-03-03T00:28:46;101113.03;;;1.49;100.00
51928;BME280;37953;52.806;18.270;2023-03-03T00:31:17;101106.88;;;1.45;100.00
51928;BME280;37953;52.806;18.270;2023-03-03T00:33:52;101103.34;;;1.43;100.00
51928;BME280;37953;52.806;18.270;2023-03-03T00:36:28;101094.81;;;1.42;100.00
51928;BME280;37953;52.806;18.270;2023-03-03T00:38:59;101092.25;;;1.42;100.00
51928;BME280;37953;52.806;18.270;2023-03-03T00:41:42;101090.56;;;1.43;100.00
51928;BME280;37953;52.806;18.270;2023-03-03T00:46:53;101076.72;;;1.39;100.00
51928;BME280;37953;52.806;18.270;2023-03-03T00:49:27;101068.06;;;1.37;100.00
51928;BME280;37953;52.806;18.270;2023-03-03T00:51:54;101060.34;;;1.36;100.00
51928;BME280;37953;52.806;18.270;2023-03-03T00:54:20;101056.09;;;1.36;100.00
51928;BME280;37953;52.806;18.270;2023-03-03T00:56:46;101057.69;;;1.34;100.00
51928;BME280;37953;52.806;18.270;2023-03-03T00:59:12;101055.94;;;1.33;100.00
51928;BME280;37953;52.806;18.270;2023-03-03T01:01:38;101060.25;;;1.34;100.00
51928;BME280;37953;52.806;18.270;2023-03-03T01:04:03;101049.06;;;1.32;100.00
51928;BME280;37953;52.806;18.270;2023-03-03T01:06:29;101049.94;;;1.33;100.00
51928;BME280;37953;52.806;18.270;2023-03-03T01:08:55;101040.44;;;1.30;100.00
51928;BME280;37953;52.806;18.270;2023-03-03T01:11:22;101046.41;;;1.31;100.00
51928;BME280;37953;52.806;18.270;2023-03-03T01:13:48;101039.56;;;1.30;100.00
51928;BME280;37953;52.806;18.270;2023-03-03T01:16:15;101036.13;;;1.29;100.00
51928;BME280;37953;52.806;18.270;2023-03-03T01:18:41;101043.81;;;1.29;100.00
51928;BME280;37953;52.806;18.270;2023-03-03T01:21:08;101042.03;;;1.28;100.00
51928;BME280;37953;52.806;18.270;2023-03-03T01:23:34;101034.34;;;1.28;100.00
51928;BME280;37953;52.806;18.270;2023-03-03T01:26:00;101036.03;;;1.28;100.00
51928;BME280;37953;52.806;18.270;2023-03-03T01:28:25;101032.66;;;1.29;100.00
51928;BME280;37953;52.806;18.270;2023-03-03T01:30:51;101026.69;;;1.28;100.00
51928;BME280;37953;52.806;18.270;2023-03-03T01:38:34;101032.63;;;1.27;100.00
51928;BME280;37953;52.806;18.270;2023-03-03T01:41:00;101041.09;;;1.26;100.00
51928;BME280;37953;52.806;18.270;2023-03-03T01:43:27;101043.63;;;1.26;100.00
51928;BME280;37953;52.806;18.270;2023-03-03T01:51:13;101051.00;;;1.20;100.00
51928;BME280;37953;52.806;18.270;2023-03-03T01:53:43;101033.91;;;1.19;100.00
51928;BME280;37953;52.806;18.270;2023-03-03T01:56:11;101036.31;;;1.16;100.00
51928;BME280;37953;52.806;18.270;2023-03-03T01:58:50;101046.63;;;1.17;100.00
51928;BME280;37953;52.806;18.270;2023-03-03T02:01:21;101049.09;;;1.16;100.00
51928;BME280;37953;52.806;18.270;2023-03-03T02:03:47;101050.69;;;1.14;100.00
51928;BME280;37953;52.806;18.270;2023-03-03T02:06:14;101047.28;;;1.13;100.00
51928;BME280;37953;52.806;18.270;2023-03-03T02:11:17;101046.41;;;1.13;100.00
51928;BME280;37953;52.806;18.270;2023-03-03T02:13:43;101044.63;;;1.12;100.00
51928;BME280;37953;52.806;18.270;2023-03-03T02:16:09;101042.88;;;1.11;100.00
51928;BME280;37953;52.806;18.270;2023-03-03T02:18:35;101034.25;;;1.09;100.00
51928;BME280;37953;52.806;18.270;2023-03-03T02:21:05;101033.38;;;1.08;100.00
51928;BME280;37953;52.806;18.270;2023-03-03T02:23:42;101017.94;;;1.07;100.00
51928;BME280;37953;52.806;18.270;2023-03-03T02:26:25;101010.19;;;1.05;100.00
51928;BME280;37953;52.806;18.270;2023-03-03T02:28:51;101022.09;;;1.05;100.00
51928;BME280;37953;52.806;18.270;2023-03-03T02:31:19;101027.13;;;1.03;100.00
51928;BME280;37953;52.806;18.270;2023-03-03T02:33:46;101028.00;;;1.04;100.00
51928;BME280;37953;52.806;18.270;2023-03-03T02:36:20;101039.94;;;1.03;100.00
51928;BME280;37953;52.806;18.270;2023-03-03T02:38:48;101030.50;;;1.02;100.00
51928;BME280;37953;52.806;18.270;2023-03-03T02:43:47;101034.69;;;1.00;100.00
51928;BME280;37953;52.806;18.270;2023-03-03T02:46:16;101034.59;;;0.98;100.00
51928;BME280;37953;52.806;18.270;2023-03-03T02:48:42;101039.63;;;0.97;100.00
51928;BME280;37953;52.806;18.270;2023-03-03T02:51:08;101046.41;;;0.96;100.00
51928;BME280;37953;52.806;18.270;2023-03-03T02:53:34;101036.19;;;0.96;100.00
51928;BME280;37953;52.806;18.270;2023-03-03T02:55:59;101036.19;;;0.96;100.00
51928;BME280;37953;52.806;18.270;2023-03-03T02:58:25;101023.47;;;0.98;100.00
51928;BME280;37953;52.806;18.270;2023-03-03T03:00:51;101017.50;;;0.97;100.00
51928;BME280;37953;52.806;18.270;2023-03-03T03:03:17;101011.47;;;0.97;100.00
51928;BME280;37953;52.806;18.270;2023-03-03T03:05:43;100992.78;;;0.98;100.00
51928;BME280;37953;52.806;18.270;2023-03-03T03:08:09;100991.91;;;0.97;100.00
51928;BME280;37953;52.806;18.270;2023-03-03T03:10:41;100992.69;;;0.96;100.00
51928;BME280;37953;52.806;18.270;2023-03-03T03:13:06;100983.34;;;0.97;100.00
51928;BME280;37953;52.806;18.270;2023-03-03T03:15:34;100991.91;;;0.97;100.00
51928;BME280;37953;52.806;18.270;2023-03-03T03:17:59;100996.13;;;0.97;100.00
51928;BME280;37953;52.806;18.270;2023-03-03T03:20:25;100990.16;;;0.96;100.00
51928;BME280;37953;52.806;18.270;2023-03-03T03:22:51;100997.72;;;0.95;100.00
51928;BME280;37953;52.806;18.270;2023-03-03T03:25:17;100999.41;;;0.94;100.00
51928;BME280;37953;52.806;18.270;2023-03-03T03:27:42;100988.31;;;0.94;100.00
51928;BME280;37953;52.806;18.270;2023-03-03T03:30:08;100993.44;;;0.94;100.00
51928;BME280;37953;52.806;18.270;2023-03-03T03:32:37;100986.63;;;0.94;100.00
51928;BME280;37953;52.806;18.270;2023-03-03T03:35:03;100986.72;;;0.96;100.00
51928;BME280;37953;52.806;18.270;2023-03-03T03:37:29;100990.16;;;0.96;100.00
51928;BME280;37953;52.806;18.270;2023-03-03T03:39:55;100989.28;;;0.96;100.00
51928;BME280;37953;52.806;18.270;2023-03-03T03:42:21;100995.16;;;0.95;100.00
51928;BME280;37953;52.806;18.270;2023-03-03T03:44:47;100993.44;;;0.94;100.00
51928;BME280;37953;52.806;18.270;2023-03-03T03:47:12;100997.69;;;0.93;100.00
51928;BME280;37953;52.806;18.270;2023-03-03T03:49:38;100990.78;;;0.92;100.00
51928;BME280;37953;52.806;18.270;2023-03-03T03:52:04;100980.56;;;0.92;100.00
51928;BME280;37953;52.806;18.270;2023-03-03T03:54:30;100975.34;;;0.91;100.00
51928;BME280;37953;52.806;18.270;2023-03-03T03:56:55;100983.03;;;0.91;100.00
51928;BME280;37953;52.806;18.270;2023-03-03T03:59:21;100968.41;;;0.88;100.00
51928;BME280;37953;52.806;18.270;2023-03-03T04:01:47;100976.09;;;0.88;100.00
51928;BME280;37953;52.806;18.270;2023-03-03T04:04:14;100989.69;;;0.87;100.00
51928;BME280;37953;52.806;18.270;2023-03-03T04:06:40;100985.28;;;0.85;100.00
51928;BME280;37953;52.806;18.270;2023-03-03T04:09:06;100979.28;;;0.84;100.00
51928;BME280;37953;52.806;18.270;2023-03-03T04:11:32;100968.97;;;0.82;100.00
51928;BME280;37953;52.806;18.270;2023-03-03T04:13:58;100957.00;;;0.81;100.00
51928;BME280;37953;52.806;18.270;2023-03-03T04:16:23;100957.09;;;0.83;100.00
51928;BME280;37953;52.806;18.270;2023-03-03T04:18:49;100962.22;;;0.83;100.00
51928;BME280;37953;52.806;18.270;2023-03-03T04:21:15;100966.41;;;0.82;100.00
51928;BME280;37953;52.806;18.270;2023-03-03T04:23:41;100968.09;;;0.82;100.00
51928;BME280;37953;52.806;18.270;2023-03-03T04:26:07;100951.91;;;0.81;100.00
51928;BME280;37953;52.806;18.270;2023-03-03T04:28:33;100964.59;;;0.80;100.00
51928;BME280;37953;52.806;18.270;2023-03-03T04:30:59;100961.97;;;0.78;100.00
51928;BME280;37953;52.806;18.270;2023-03-03T04:33:25;100973.88;;;0.78;100.00
51928;BME280;37953;52.806;18.270;2023-03-03T04:35:51;100977.31;;;0.78;100.00
51928;BME280;37953;52.806;18.270;2023-03-03T04:38:17;100976.44;;;0.78;100.00
51928;BME280;37953;52.806;18.270;2023-03-03T04:40:42;100977.31;;;0.78;100.00
51928;BME280;37953;52.806;18.270;2023-03-03T04:43:08;100973.00;;;0.77;100.00
51928;BME280;37953;52.806;18.270;2023-03-03T04:45:35;100965.41;;;0.79;100.00
51928;BME280;37953;52.806;18.270;2023-03-03T04:48:06;100970.53;;;0.79;100.00
51928;BME280;37953;52.806;18.270;2023-03-03T04:50:32;100976.50;;;0.79;100.00
51928;BME280;37953;52.806;18.270;2023-03-03T04:52:59;100967.97;;;0.79;100.00
51928;BME280;37953;52.806;18.270;2023-03-03T04:55:25;100959.44;;;0.78;100.00
51928;BME280;37953;52.806;18.270;2023-03-03T04:57:51;100955.97;;;0.78;100.00
51928;BME280;37953;52.806;18.270;2023-03-03T05:00:17;100955.09;;;0.77;100.00
51928;BME280;37953;52.806;18.270;2023-03-03T05:02:42;100957.66;;;0.77;100.00
51928;BME280;37953;52.806;18.270;2023-03-03T05:05:09;100953.34;;;0.76;100.00
51928;BME280;37953;52.806;18.270;2023-03-03T05:07:35;100949.03;;;0.75;100.00
51928;BME280;37953;52.806;18.270;2023-03-03T05:10:01;100951.59;;;0.75;100.00
51928;BME280;37953;52.806;18.270;2023-03-03T05:12:27;100955.81;;;0.75;100.00
51928;BME280;37953;52.806;18.270;2023-03-03T05:14:53;100954.97;;;0.74;100.00
51928;BME280;37953;52.806;18.270;2023-03-03T05:17:19;100954.00;;;0.72;100.00
51928;BME280;37953;52.806;18.270;2023-03-03T05:19:44;100954.00;;;0.72;100.00
51928;BME280;37953;52.806;18.270;2023-03-03T05:22:10;100960.72;;;0.70;100.00
51928;BME280;37953;52.806;18.270;2023-03-03T05:24:36;100976.84;;;0.69;100.00
51928;BME280;37953;52.806;18.270;2023-03-03T05:27:02;100981.09;;;0.69;100.00
51928;BME280;37953;52.806;18.270;2023-03-03T05:29:28;100976.84;;;0.69;100.00
51928;BME280;37953;52.806;18.270;2023-03-03T05:31:56;100987.25;;;0.72;100.00
51928;BME280;37953;52.806;18.270;2023-03-03T05:34:22;100989.94;;;0.75;100.00
51928;BME280;37953;52.806;18.270;2023-03-03T05:36:48;100996.00;;;0.77;100.00
51928;BME280;37953;52.806;18.270;2023-03-03T05:39:14;100988.44;;;0.79;100.00
51928;BME280;37953;52.806;18.270;2023-03-03T05:41:40;100989.38;;;0.81;100.00
51928;BME280;37953;52.806;18.270;2023-03-03T05:44:05;100980.84;;;0.80;100.00
51928;BME280;37953;52.806;18.270;2023-03-03T05:46:32;100993.69;;;0.82;100.00
51928;BME280;37953;52.806;18.270;2023-03-03T05:49:00;100983.41;;;0.80;100.00
51928;BME280;37953;52.806;18.270;2023-03-03T05:51:32;100971.41;;;0.79;100.00
51928;BME280;37953;52.806;18.270;2023-03-03T05:53:58;100972.22;;;0.78;100.00
51928;BME280;37953;52.806;18.270;2023-03-03T05:56:24;100973.88;;;0.78;100.00
51928;BME280;37953;52.806;18.270;2023-03-03T05:58:50;100971.41;;;0.79;100.00
51928;BME280;37953;52.806;18.270;2023-03-03T06:01:16;100966.38;;;0.81;100.00
51928;BME280;37953;52.806;18.270;2023-03-03T06:03:41;100961.25;;;0.81;100.00
51928;BME280;37953;52.806;18.270;2023-03-03T06:06:07;100971.53;;;0.82;100.00
51928;BME280;37953;52.806;18.270;2023-03-03T06:08:39;100969.88;;;0.83;100.00
51928;BME280;37953;52.806;18.270;2023-03-03T06:11:05;100968.09;;;0.82;100.00
51928;BME280;37953;52.806;18.270;2023-03-03T06:13:31;100953.56;;;0.81;100.00
51928;BME280;37953;52.806;18.270;2023-03-03T06:15:57;100966.38;;;0.81;100.00
51928;BME280;37953;52.806;18.270;2023-03-03T06:18:23;100974.78;;;0.78;100.00
51928;BME280;37953;52.806;18.270;2023-03-03T06:20:52;100962.75;;;0.77;100.00
51928;BME280;37953;52.806;18.270;2023-03-03T06:23:18;100964.47;;;0.77;100.00
51928;BME280;37953;52.806;18.270;2023-03-03T06:25:43;100966.13;;;0.76;100.00
51928;BME280;37953;52.806;18.270;2023-03-03T06:28:09;100981.47;;;0.76;100.00
51928;BME280;37953;52.806;18.270;2023-03-03T06:30:35;100990.03;;;0.77;100.00
51928;BME280;37953;52.806;18.270;2023-03-03T06:33:01;100983.09;;;0.74;100.00
51928;BME280;37953;52.806;18.270;2023-03-03T06:35:27;100982.19;;;0.74;100.00
51928;BME280;37953;52.806;18.270;2023-03-03T06:37:53;100994.09;;;0.73;100.00
51928;BME280;37953;52.806;18.270;2023-03-03T06:40:19;100992.34;;;0.72;100.00
51928;BME280;37953;52.806;18.270;2023-03-03T06:42:45;100991.53;;;0.73;100.00
51928;BME280;37953;52.806;18.270;2023-03-03T06:45:11;100996.56;;;0.72;100.00
51928;BME280;37953;52.806;18.270;2023-03-03T06:47:37;100998.16;;;0.70;100.00
51928;BME280;37953;52.806;18.270;2023-03-03T06:50:02;100986.28;;;0.70;100.00
51928;BME280;37953;52.806;18.270;2023-03-03T06:52:28;100982.81;;;0.70;100.00
51928;BME280;37953;52.806;18.270;2023-03-03T06:54:56;100978.53;;;0.69;100.00
51928;BME280;37953;52.806;18.270;2023-03-03T06:57:26;100977.72;;;0.70;100.00
51928;BME280;37953;52.806;18.270;2023-03-03T06:59:53;100986.28;;;0.70;100.00
51928;BME280;37953;52.806;18.270;2023-03-03T07:02:20;100984.59;;;0.71;100.00
51928;BME280;37953;52.806;18.270;2023-03-03T07:04:46;100980.28;;;0.70;100.00
51928;BME280;37953;52.806;18.270;2023-03-03T07:07:24;100984.59;;;0.71;100.00
51928;BME280;37953;52.806;18.270;2023-03-03T07:09:52;100981.19;;;0.70;100.00
51928;BME280;37953;52.806;18.270;2023-03-03T07:12:28;100985.47;;;0.71;100.00
51928;BME280;37953;52.806;18.270;2023-03-03T07:14:56;100988.03;;;0.71;100.00
51928;BME280;37953;52.806;18.270;2023-03-03T07:17:24;100981.31;;;0.73;100.00
51928;BME280;37953;52.806;18.270;2023-03-03T07:19:50;101000.16;;;0.75;100.00
51928;BME280;37953;52.806;18.270;2023-03-03T07:22:17;101000.16;;;0.75;100.00
51928;BME280;37953;52.806;18.270;2023-03-03T07:24:44;100997.63;;;0.75;100.00
51928;BME280;37953;52.806;18.270;2023-03-03T07:27:13;100996.75;;;0.75;100.00
51928;BME280;37953;52.806;18.270;2023-03-03T07:29:51;100998.47;;;0.76;100.00
51928;BME280;37953;52.806;18.270;2023-03-03T07:35:01;101020.94;;;0.81;100.00
51928;BME280;37953;52.806;18.270;2023-03-03T07:37:36;101027.81;;;0.82;100.00
51928;BME280;37953;52.806;18.270;2023-03-03T07:42:47;101032.13;;;0.84;100.00
51928;BME280;37953;52.806;18.270;2023-03-03T07:45:26;101036.38;;;0.83;100.00
51928;BME280;37953;52.806;18.270;2023-03-03T07:47:55;101027.75;;;0.81;100.00
51928;BME280;37953;52.806;18.270;2023-03-03T07:50:22;101043.88;;;0.80;100.00
51928;BME280;37953;52.806;18.270;2023-03-03T07:52:55;101048.94;;;0.78;100.00
51928;BME280;37953;52.806;18.270;2023-03-03T07:57:50;101040.34;;;0.78;100.00
51928;BME280;37953;52.806;18.270;2023-03-03T08:02:48;101037.88;;;0.79;100.00
51928;BME280;37953;52.806;18.270;2023-03-03T08:07:50;101047.34;;;0.80;100.00
51928;BME280;37953;52.806;18.270;2023-03-03T08:13:01;101048.84;;;0.77;100.00
51928;BME280;37953;52.806;18.270;2023-03-03T08:15:35;101046.38;;;0.78;100.00
51928;BME280;37953;52.806;18.270;2023-03-03T08:18:01;101048.13;;;0.79;100.00
51928;BME280;37953;52.806;18.270;2023-03-03T08:22:56;101034.53;;;0.80;100.00
51928;BME280;37953;52.806;18.270;2023-03-03T08:25:22;101044.91;;;0.84;100.00
51928;BME280;37953;52.806;18.270;2023-03-03T08:27:48;101046.59;;;0.83;100.00
51928;BME280;37953;52.806;18.270;2023-03-03T08:30:14;101053.47;;;0.84;100.00
51928;BME280;37953;52.806;18.270;2023-03-03T08:32:39;101049.41;;;0.88;100.00
51928;BME280;37953;52.806;18.270;2023-03-03T08:35:05;101061.38;;;0.89;100.00
51928;BME280;37953;52.806;18.270;2023-03-03T08:37:31;101061.38;;;0.89;100.00
51928;BME280;37953;52.806;18.270;2023-03-03T08:39:57;101061.38;;;0.89;100.00
51928;BME280;37953;52.806;18.270;2023-03-03T08:42:23;101069.03;;;0.89;100.00
51928;BME280;37953;52.806;18.270;2023-03-03T08:44:49;101070.81;;;0.90;100.00
51928;BME280;37953;52.806;18.270;2023-03-03T08:47:14;101069.13;;;0.90;100.00
51928;BME280;37953;52.806;18.270;2023-03-03T08:49:40;101058.16;;;0.93;100.00
51928;BME280;37953;52.806;18.270;2023-03-03T08:52:06;101063.47;;;0.96;100.00
51928;BME280;37953;52.806;18.270;2023-03-03T08:54:32;101056.75;;;0.98;100.00
51928;BME280;37953;52.806;18.270;2023-03-03T08:56:58;101061.91;;;0.99;100.00
51928;BME280;37953;52.806;18.270;2023-03-03T08:59:24;101044.09;;;1.01;100.00
51928;BME280;37953;52.806;18.270;2023-03-03T09:01:50;101060.31;;;1.01;100.00
51928;BME280;37953;52.806;18.270;2023-03-03T09:04:28;101056.16;;;1.04;100.00
51928;BME280;37953;52.806;18.270;2023-03-03T09:06:54;101047.69;;;1.05;100.00
51928;BME280;37953;52.806;18.270;2023-03-03T09:09:20;101050.34;;;1.06;100.00
51928;BME280;37953;52.806;18.270;2023-03-03T09:11:46;101052.91;;;1.06;100.00
51928;BME280;37953;52.806;18.270;2023-03-03T09:14:12;101062.41;;;1.09;100.00
51928;BME280;37953;52.806;18.270;2023-03-03T09:16:42;101064.97;;;1.09;100.00
51928;BME280;37953;52.806;18.270;2023-03-03T09:19:29;101068.47;;;1.11;100.00
51928;BME280;37953;52.806;18.270;2023-03-03T09:21:58;101070.16;;;1.10;100.00
51928;BME280;37953;52.806;18.270;2023-03-03T09:24:27;101054.00;;;1.11;100.00
51928;BME280;37953;52.806;18.270;2023-03-03T09:26:53;101048.88;;;1.11;100.00
51928;BME280;37953;52.806;18.270;2023-03-03T09:29:24;101052.38;;;1.13;100.00
51928;BME280;37953;52.806;18.270;2023-03-03T09:31:51;101056.78;;;1.16;100.00
51928;BME280;37953;52.806;18.270;2023-03-03T09:36:50;101049.97;;;1.16;100.00
51928;BME280;37953;52.806;18.270;2023-03-03T09:39:25;101051.75;;;1.17;100.00
51928;BME280;37953;52.806;18.270;2023-03-03T09:44:27;101039.03;;;1.19;100.00
51928;BME280;37953;52.806;18.270;2023-03-03T09:50:07;101040.00;;;1.21;100.00
51928;BME280;37953;52.806;18.270;2023-03-03T10:07:54;101021.56;;;1.28;100.00
51928;BME280;37953;52.806;18.270;2023-03-03T10:13:24;101024.28;;;1.31;100.00
51928;BME280;37953;52.806;18.270;2023-03-03T10:20:53;101021.78;;;1.33;100.00
51928;BME280;37953;52.806;18.270;2023-03-03T10:31:36;101018.25;;;1.31;100.00
51928;BME280;37953;52.806;18.270;2023-03-03T10:36:52;101004.72;;;1.33;100.00
51928;BME280;37953;52.806;18.270;2023-03-03T10:57:27;101016.88;;;1.37;100.00
51928;BME280;37953;52.806;18.270;2023-03-03T11:02:26;101018.75;;;1.40;100.00
51928;BME280;37953;52.806;18.270;2023-03-03T11:07:51;101015.44;;;1.42;100.00
51928;BME280;37953;52.806;18.270;2023-03-03T11:18:42;101016.38;;;1.45;100.00
51928;BME280;37953;52.806;18.270;2023-03-03T11:26:10;101009.88;;;1.51;100.00
51928;BME280;37953;52.806;18.270;2023-03-03T11:28:43;101007.44;;;1.54;100.00
51928;BME280;37953;52.806;18.270;2023-03-03T11:31:15;101001.53;;;1.55;100.00
51928;BME280;37953;52.806;18.270;2023-03-03T11:43:59;100984.69;;;1.60;100.00
51928;BME280;37953;52.806;18.270;2023-03-03T11:46:33;100983.91;;;1.61;100.00
51928;BME280;37953;52.806;18.270;2023-03-03T11:49:02;100984.84;;;1.63;100.00
51928;BME280;37953;52.806;18.270;2023-03-03T11:54:16;100984.91;;;1.65;100.00
51928;BME280;37953;52.806;18.270;2023-03-03T11:56:48;100985.84;;;1.67;100.00
51928;BME280;37953;52.806;18.270;2023-03-03T12:02:02;100983.47;;;1.70;100.00
51928;BME280;37953;52.806;18.270;2023-03-03T12:04:49;100985.19;;;1.71;100.00
51928;BME280;37953;52.806;18.270;2023-03-03T12:18:05;100976.84;;;1.75;100.00
51928;BME280;37953;52.806;18.270;2023-03-03T12:28:36;100974.66;;;1.83;100.00
51928;BME280;37953;52.806;18.270;2023-03-03T12:41:36;100955.25;;;1.88;100.00
51928;BME280;37953;52.806;18.270;2023-03-03T12:46:43;100946.69;;;1.88;100.00
51928;BME280;37953;52.806;18.270;2023-03-03T12:49:09;100951.03;;;1.89;100.00
51928;BME280;37953;52.806;18.270;2023-03-03T12:52:05;100956.16;;;1.89;100.00
51928;BME280;37953;52.806;18.270;2023-03-03T13:12:38;100946.28;;;1.98;100.00
51928;BME280;37953;52.806;18.270;2023-03-03T13:17:57;100943.94;;;2.02;100.00
51928;BME280;37953;52.806;18.270;2023-03-03T13:28:36;100939.00;;;2.07;100.00
51928;BME280;37953;52.806;18.270;2023-03-03T13:31:14;100931.31;;;2.07;100.00
51928;BME280;37953;52.806;18.270;2023-03-03T13:33:43;100932.22;;;2.08;100.00
51928;BME280;37953;52.806;18.270;2023-03-03T13:36:15;100927.16;;;2.09;100.00
51928;BME280;37953;52.806;18.270;2023-03-03T13:38:46;100918.59;;;2.09;100.00
51928;BME280;37953;52.806;18.270;2023-03-03T13:41:21;100913.53;;;2.10;100.00
51928;BME280;37953;52.806;18.270;2023-03-03T13:43:54;100917.78;;;2.10;100.00
51928;BME280;37953;52.806;18.270;2023-03-03T13:51:43;100900.06;;;2.14;100.00
51928;BME280;37953;52.806;18.270;2023-03-03T14:02:24;100895.19;;;2.20;100.00
51928;BME280;37953;52.806;18.270;2023-03-03T14:07:56;100893.56;;;2.22;100.00
51928;BME280;37953;52.806;18.270;2023-03-03T14:10:33;100891.06;;;2.24;100.00
51928;BME280;37953;52.806;18.270;2023-03-03T14:13:07;100884.19;;;2.23;100.00
51928;BME280;37953;52.806;18.270;2023-03-03T14:20:33;100881.63;;;2.23;100.00
51928;BME280;37953;52.806;18.270;2023-03-03T14:23:02;100882.50;;;2.23;100.00
51928;BME280;37953;52.806;18.270;2023-03-03T14:28:16;100876.63;;;2.26;100.00
51928;BME280;37953;52.806;18.270;2023-03-03T14:30:43;100878.38;;;2.27;100.00
51928;BME280;37953;52.806;18.270;2023-03-03T14:35:39;100867.38;;;2.30;100.00
51928;BME280;37953;52.806;18.270;2023-03-03T14:38:14;100862.31;;;2.31;100.00
51928;BME280;37953;52.806;18.270;2023-03-03T14:40:41;100864.94;;;2.33;100.00
51928;BME280;37953;52.806;18.270;2023-03-03T14:43:32;100851.38;;;2.35;100.00
51928;BME280;37953;52.806;18.270;2023-03-03T14:48:55;100845.50;;;2.38;100.00
51928;BME280;37953;52.806;18.270;2023-03-03T14:53:47;100842.13;;;2.39;100.00
51928;BME280;37953;52.806;18.270;2023-03-03T14:58:40;100853.38;;;2.42;100.00
51928;BME280;37953;52.806;18.270;2023-03-03T15:01:14;100846.53;;;2.41;100.00
51928;BME280;37953;52.806;18.270;2023-03-03T15:03:47;100853.38;;;2.42;100.00
51928;BME280;37953;52.806;18.270;2023-03-03T15:06:26;100844.00;;;2.43;100.00
51928;BME280;37953;52.806;18.270;2023-03-03T15:11:44;100851.69;;;2.43;100.00
51928;BME280;37953;52.806;18.270;2023-03-03T15:14:11;100845.78;;;2.44;100.00
51928;BME280;37953;52.806;18.270;2023-03-03T15:16:38;100847.50;;;2.45;100.00
51928;BME280;37953;52.806;18.270;2023-03-03T15:21:52;100839.88;;;2.47;100.00
51928;BME280;37953;52.806;18.270;2023-03-03T15:24:28;100836.50;;;2.48;100.00
51928;BME280;37953;52.806;18.270;2023-03-03T15:27:01;100833.94;;;2.48;100.00
51928;BME280;37953;52.806;18.270;2023-03-03T15:34:43;100824.56;;;2.48;100.00
51928;BME280;37953;52.806;18.270;2023-03-03T15:51:05;100817.06;;;2.53;100.00
51928;BME280;37953;52.806;18.270;2023-03-03T15:56:18;100820.56;;;2.55;100.00
51928;BME280;37953;52.806;18.270;2023-03-03T15:59:06;100823.94;;;2.54;100.00
51928;BME280;37953;52.806;18.270;2023-03-03T16:01:40;100822.25;;;2.54;100.00
51928;BME280;37953;52.806;18.270;2023-03-03T16:04:15;100830.00;;;2.56;100.00
51928;BME280;37953;52.806;18.270;2023-03-03T16:06:52;100823.19;;;2.56;100.00
51928;BME280;37953;52.806;18.270;2023-03-03T16:11:57;100821.50;;;2.57;100.00
51928;BME280;37953;52.806;18.270;2023-03-03T16:17:19;100809.53;;;2.57;100.00
51928;BME280;37953;52.806;18.270;2023-03-03T16:22:45;100806.19;;;2.58;100.00
51928;BME280;37953;52.806;18.270;2023-03-03T16:30:43;100807.13;;;2.60;100.00
51928;BME280;37953;52.806;18.270;2023-03-03T16:33:17;100803.63;;;2.58;100.00
51928;BME280;37953;52.806;18.270;2023-03-03T16:36:04;100803.56;;;2.57;100.00
51928;BME280;37953;52.806;18.270;2023-03-03T16:40:58;100801.66;;;2.53;100.00
51928;BME280;37953;52.806;18.270;2023-03-03T16:49:18;100805.72;;;2.48;100.00
51928;BME280;37953;52.806;18.270;2023-03-03T16:59:41;100801.34;;;2.45;100.00
51928;BME280;37953;52.806;18.270;2023-03-03T17:10:20;100805.59;;;2.44;100.00
51928;BME280;37953;52.806;18.270;2023-03-03T17:12:55;100804.81;;;2.46;100.00
51928;BME280;37953;52.806;18.270;2023-03-03T17:15:29;100797.91;;;2.44;100.00
51928;BME280;37953;52.806;18.270;2023-03-03T17:30:55;100802.94;;;2.41;100.00
51928;BME280;37953;52.806;18.270;2023-03-03T17:36:29;100793.47;;;2.40;100.00
51928;BME280;37953;52.806;18.270;2023-03-03T17:41:29;100792.69;;;2.41;100.00
51928;BME280;37953;52.806;18.270;2023-03-03T17:46:44;100785.84;;;2.42;100.00
51928;BME280;37953;52.806;18.270;2023-03-03T17:49:21;100786.66;;;2.41;100.00
51928;BME280;37953;52.806;18.270;2023-03-03T17:57:12;100772.16;;;2.41;100.00
51928;BME280;37953;52.806;18.270;2023-03-03T18:07:41;100776.34;;;2.39;100.00
51928;BME280;37953;52.806;18.270;2023-03-03T18:12:38;100772.88;;;2.39;100.00
51928;BME280;37953;52.806;18.270;2023-03-03T18:18:01;100767.72;;;2.37;100.00
51928;BME280;37953;52.806;18.270;2023-03-03T18:20:33;100770.31;;;2.39;100.00